createdAt,value
2023-03-26T00:00:26.489Z,4.40
2023-03-26T00:05:49.786Z,3.70
2023-03-26T00:10:52.441Z,3.80
2023-03-26T00:15:55.510Z,3.90
2023-03-26T00:20:59.661Z,3.80
2023-03-26T00:26:03.704Z,3.80
2023-03-26T00:31:09.052Z,3.90
2023-03-26T00:36:15.435Z,4.10
2023-03-26T00:41:26.298Z,3.90
2023-03-26T00:46:31.575Z,3.20
2023-03-26T00:51:35.077Z,4.20
2023-03-26T00:56:38.967Z,3.10
2023-03-26T01:01:41.851Z,4.20
2023-03-26T01:06:45.433Z,4.40
2023-03-26T01:11:49.733Z,3.90
2023-03-26T01:16:55.155Z,4.50
2023-03-26T01:21:59.093Z,4.20
2023-03-26T01:27:27.836Z,4.20
2023-03-26T01:32:53.159Z,4.20
2023-03-26T01:38:10.977Z,4.00
2023-03-26T01:43:39.807Z,4.00
2023-03-26T01:48:45.194Z,4.70
2023-03-26T01:53:48.521Z,4.00
2023-03-26T01:59:16.794Z,4.00
2023-03-26T02:04:35.046Z,3.50
2023-03-26T02:09:58.345Z,4.10
2023-03-26T02:15:02.260Z,3.40
2023-03-26T02:20:09.922Z,3.40
2023-03-26T02:25:16.419Z,4.00
2023-03-26T02:30:27.158Z,4.20
2023-03-26T02:35:29.866Z,5.10
2023-03-26T02:40:32.668Z,4.70
2023-03-26T02:45:35.469Z,4.20
2023-03-26T02:50:38.296Z,5.20
2023-03-26T02:55:41.067Z,4.90
2023-03-26T03:00:45.002Z,5.00
2023-03-26T03:05:47.650Z,4.90
2023-03-26T03:10:57.232Z,5.20
2023-03-26T03:15:59.906Z,4.90
2023-03-26T03:21:03.556Z,4.10
2023-03-26T03:26:13.019Z,5.80
2023-03-26T03:31:17.346Z,5.70
2023-03-26T03:36:22.737Z,5.20
2023-03-26T03:41:25.427Z,4.90
2023-03-26T03:46:28.712Z,5.30
2023-03-26T03:51:31.540Z,6.30
2023-03-26T03:56:34.300Z,5.80
2023-03-26T04:01:37.709Z,7.60
2023-03-26T04:06:40.452Z,6.10
2023-03-26T04:11:43.126Z,6.10
2023-03-26T04:16:46.062Z,5.70
2023-03-26T04:21:49.670Z,5.50
2023-03-26T04:26:52.418Z,6.20
2023-03-26T04:32:06.513Z,6.20
2023-03-26T04:37:16.621Z,5.90
2023-03-26T04:42:20.179Z,5.10
2023-03-26T04:47:23.632Z,5.20
2023-03-26T04:52:26.547Z,6.00
2023-03-26T04:57:39.499Z,5.40
2023-03-26T05:02:43.369Z,6.30
2023-03-26T05:07:46.114Z,4.20
2023-03-26T05:12:49.527Z,5.20
2023-03-26T05:17:52.311Z,5.80
2023-03-26T05:22:55.856Z,5.30
2023-03-26T05:27:58.581Z,5.40
2023-03-26T05:33:04.410Z,4.60
2023-03-26T05:38:07.351Z,5.00
2023-03-26T05:43:10.239Z,5.10
2023-03-26T05:48:13.024Z,5.40
2023-03-26T05:53:15.833Z,5.00
2023-03-26T05:58:18.464Z,5.10
2023-03-26T06:03:23.409Z,4.80
2023-03-26T06:08:26.727Z,4.10
2023-03-26T06:13:29.593Z,5.00
2023-03-26T06:18:32.835Z,4.30
2023-03-26T06:23:35.601Z,4.90
2023-03-26T06:28:38.298Z,3.90
2023-03-26T06:33:41.106Z,4.00
2023-03-26T06:38:43.790Z,3.70
2023-03-26T06:43:46.500Z,3.50
2023-03-26T06:48:49.396Z,3.50
2023-03-26T06:53:52.207Z,3.40
2023-03-26T06:58:54.895Z,3.50
2023-03-26T07:04:00.013Z,3.20
2023-03-26T07:09:03.421Z,3.40
2023-03-26T07:14:06.221Z,3.30
2023-03-26T07:19:08.976Z,3.60
2023-03-26T07:24:12.548Z,3.10
2023-03-26T07:29:35.178Z,3.80
2023-03-26T07:35:12.862Z,4.20
2023-03-26T07:40:37.828Z,4.00
2023-03-26T07:45:43.222Z,3.10
2023-03-26T07:50:47.083Z,3.30
2023-03-26T07:56:00.679Z,3.60
2023-03-26T08:01:46.290Z,3.00
2023-03-26T08:06:59.674Z,3.10
2023-03-26T08:12:45.516Z,3.10
2023-03-26T08:18:20.252Z,3.50
2023-03-26T08:23:50.672Z,3.00
2023-03-26T08:28:57.399Z,2.90
2023-03-26T08:34:00.458Z,3.20
2023-03-26T08:39:04.223Z,3.60
2023-03-26T08:44:25.984Z,3.20
2023-03-26T08:49:50.277Z,3.00
2023-03-26T08:55:14.882Z,5.60
2023-03-26T09:00:57.573Z,4.90
2023-03-26T09:06:33.299Z,3.90
2023-03-26T09:11:58.455Z,4.10
2023-03-26T09:17:13.520Z,2.80
2023-03-26T09:22:35.082Z,2.40
2023-03-26T09:27:56.483Z,1.80
2023-03-26T09:33:32.881Z,1.80
2023-03-26T09:43:54.476Z,1.70
2023-03-26T09:49:21.528Z,1.70
2023-03-26T09:54:52.182Z,2.20
2023-03-26T10:00:26.056Z,1.70
2023-03-26T10:06:12.947Z,1.70
2023-03-26T10:11:43.358Z,1.50
2023-03-26T10:17:07.902Z,1.80
2023-03-26T10:22:26.022Z,1.60
2023-03-26T10:27:37.634Z,1.30
2023-03-26T10:32:52.356Z,1.40
2023-03-26T10:38:16.083Z,2.00
2023-03-26T10:43:47.985Z,1.60
2023-03-26T10:49:28.292Z,1.70
2023-03-26T10:54:58.038Z,2.40
2023-03-26T11:00:25.542Z,1.90
2023-03-26T11:05:51.403Z,2.30
2023-03-26T11:11:10.453Z,1.80
2023-03-26T11:16:30.660Z,1.50
2023-03-26T11:21:42.968Z,1.30
2023-03-26T11:27:15.333Z,1.10
2023-03-26T11:32:32.618Z,0.90
2023-03-26T11:37:41.728Z,1.30
2023-03-26T11:42:45.395Z,1.50
2023-03-26T11:47:56.162Z,1.60
2023-03-26T11:53:23.953Z,1.90
2023-03-26T11:59:01.138Z,2.00
2023-03-26T12:04:15.821Z,1.70
2023-03-26T12:09:20.248Z,1.70
2023-03-26T12:14:26.654Z,3.80
2023-03-26T12:19:39.450Z,2.00
2023-03-26T12:24:42.428Z,1.30
2023-03-26T12:29:51.600Z,0.80
2023-03-26T12:34:54.362Z,1.20
2023-03-26T12:40:25.912Z,1.60
2023-03-26T12:45:38.581Z,1.30
2023-03-26T12:51:06.577Z,0.90
2023-03-26T12:56:21.593Z,1.10
2023-03-26T13:01:50.444Z,2.10
2023-03-26T13:07:15.380Z,1.90
2023-03-26T13:12:48.284Z,1.10
2023-03-26T13:18:21.987Z,1.20
2023-03-26T13:23:42.380Z,1.10
2023-03-26T13:28:52.703Z,1.30
2023-03-26T13:34:13.494Z,1.20
2023-03-26T13:39:37.218Z,1.00
2023-03-26T13:45:05.126Z,1.50
2023-03-26T13:50:25.548Z,1.70
2023-03-26T13:55:44.803Z,2.10
2023-03-26T14:01:18.012Z,1.50
2023-03-26T14:06:43.666Z,1.60
2023-03-26T14:12:21.013Z,1.40
2023-03-26T14:17:28.658Z,1.50
2023-03-26T14:22:56.892Z,1.10
2023-03-26T14:28:02.361Z,1.30
2023-03-26T14:33:38.550Z,1.50
2023-03-26T14:38:47.341Z,1.50
2023-03-26T14:44:48.104Z,1.30
2023-03-26T14:50:13.904Z,1.10
2023-03-26T14:55:56.812Z,1.10
2023-03-26T15:01:22.740Z,1.60
2023-03-26T15:06:43.672Z,1.80
2023-03-26T15:11:53.542Z,1.20
2023-03-26T15:17:40.612Z,1.20
2023-03-26T15:22:54.041Z,1.30
2023-03-26T15:27:57.561Z,4.50
2023-03-26T15:33:18.685Z,2.80
2023-03-26T15:38:41.748Z,3.20
2023-03-26T15:49:42.994Z,3.70
2023-03-26T15:55:27.871Z,3.50
2023-03-26T16:00:35.572Z,4.00
2023-03-26T16:05:56.921Z,12.30
2023-03-26T16:11:00.592Z,23.00
2023-03-26T16:16:03.746Z,8.40
2023-03-26T16:21:32.120Z,5.20
2023-03-26T16:26:44.736Z,4.20
2023-03-26T16:32:19.938Z,3.70
2023-03-26T16:37:37.903Z,7.00
2023-03-26T16:42:45.814Z,16.70
2023-03-26T16:48:01.660Z,7.40
2023-03-26T16:53:29.615Z,3.30
2023-03-26T16:59:06.987Z,2.70
2023-03-26T17:04:17.434Z,2.50
2023-03-26T17:09:51.903Z,2.10
2023-03-26T17:15:01.101Z,2.10
2023-03-26T17:20:16.394Z,2.20
2023-03-26T17:25:32.743Z,2.90
2023-03-26T17:30:44.824Z,1.80
2023-03-26T17:35:50.619Z,1.70
2023-03-26T17:40:59.640Z,1.70
2023-03-26T17:46:33.374Z,1.60
2023-03-26T17:51:48.031Z,1.70
2023-03-26T17:56:53.195Z,1.80
2023-03-26T18:01:59.951Z,1.90
2023-03-26T18:12:28.129Z,1.80
2023-03-26T18:17:40.252Z,1.90
2023-03-26T18:22:44.473Z,1.70
2023-03-26T18:27:48.725Z,1.60
2023-03-26T18:33:03.595Z,2.60
2023-03-26T18:38:06.605Z,3.50
2023-03-26T18:43:28.877Z,4.20
2023-03-26T18:48:37.176Z,4.10
2023-03-26T18:53:54.388Z,3.70
2023-03-26T18:59:02.779Z,4.00
2023-03-26T19:04:08.336Z,3.00
2023-03-26T19:09:28.033Z,3.20
2023-03-26T19:14:37.028Z,4.30
2023-03-26T19:19:39.976Z,5.00
2023-03-26T19:24:42.986Z,6.30
2023-03-26T19:29:46.646Z,6.80
2023-03-26T19:34:50.838Z,5.50
2023-03-26T19:39:55.620Z,4.90
2023-03-26T19:44:59.596Z,4.60
2023-03-26T19:50:19.597Z,3.60
2023-03-26T19:55:24.209Z,4.20
2023-03-26T20:00:26.982Z,4.20
2023-03-26T20:05:34.150Z,6.10
2023-03-26T20:10:36.871Z,22.50
2023-03-26T20:15:40.968Z,17.10
2023-03-26T20:20:43.835Z,18.80
2023-03-26T20:25:53.719Z,14.80
2023-03-26T20:30:57.116Z,8.90
2023-03-26T20:36:00.519Z,7.70
2023-03-26T20:41:04.312Z,5.90
2023-03-26T20:46:07.320Z,6.70
2023-03-26T20:51:15.648Z,6.40
2023-03-26T20:56:20.662Z,4.70
2023-03-26T21:01:23.870Z,4.30
2023-03-26T21:06:26.826Z,4.20
2023-03-26T21:11:45.854Z,4.60
2023-03-26T21:16:49.077Z,4.10
2023-03-26T21:22:07.955Z,4.80
2023-03-26T21:27:26.510Z,5.60
2023-03-26T21:32:31.656Z,4.10
2023-03-26T21:37:35.124Z,3.20
2023-03-26T21:42:38.087Z,3.00
2023-03-26T21:47:42.100Z,2.70
2023-03-26T21:52:48.554Z,3.30
2023-03-26T21:57:54.124Z,2.80
2023-03-26T22:03:05.941Z,2.60
2023-03-26T22:08:21.537Z,2.70
2023-03-26T22:13:24.825Z,2.50
2023-03-26T22:18:30.415Z,2.20
2023-03-26T22:23:34.326Z,2.30
2023-03-26T22:28:37.201Z,2.70
2023-03-26T22:33:43.227Z,3.20
2023-03-26T22:38:46.635Z,2.40
2023-03-26T22:43:52.192Z,2.70
2023-03-26T22:48:56.033Z,2.30
2023-03-26T22:53:58.723Z,2.40
2023-03-26T22:59:01.399Z,2.50
2023-03-26T23:04:04.176Z,2.40
2023-03-26T23:09:07.178Z,2.10
2023-03-26T23:14:10.041Z,2.60
2023-03-26T23:19:12.788Z,2.60
2023-03-26T23:24:15.845Z,2.70
2023-03-26T23:29:19.126Z,2.50
2023-03-26T23:34:22.880Z,3.20
2023-03-26T23:39:26.917Z,2.50
2023-03-26T23:44:29.713Z,2.90
2023-03-26T23:49:32.382Z,3.40
2023-03-26T23:54:35.725Z,3.90
2023-03-26T23:59:38.630Z,4.30
